createdAt,value
2018-01-18T00:00:19.742Z,99708.12
2018-01-18T00:02:48.073Z,99705.48
2018-01-18T00:05:16.386Z,99694.47
2018-01-18T00:07:44.722Z,99694.04
2018-01-18T00:10:13.033Z,99691.77
2018-01-18T00:12:41.373Z,99690.11
2018-01-18T00:15:09.709Z,99687.59
2018-01-18T00:17:38.017Z,99687.95
2018-01-18T00:20:06.355Z,99685.93
2018-01-18T00:22:34.661Z,99687.63
2018-01-18T00:25:02.997Z,99671.14
2018-01-18T00:27:31.314Z,99671.94
2018-01-18T00:29:59.647Z,99674.44
2018-01-18T00:32:27.962Z,99678.19
2018-01-18T00:34:56.294Z,99665.75
2018-01-18T00:37:24.612Z,99663.70
2018-01-18T00:39:52.946Z,99657.04
2018-01-18T00:42:21.261Z,99656.04
2018-01-18T00:44:49.598Z,99654.16
2018-01-18T00:47:17.905Z,99650.02
2018-01-18T00:49:46.242Z,99648.39
2018-01-18T00:52:14.553Z,99648.38
2018-01-18T00:54:42.889Z,99648.27
2018-01-18T00:57:11.203Z,99650.30
2018-01-18T00:59:39.529Z,99630.45
2018-01-18T01:02:07.838Z,99632.05
2018-01-18T01:04:36.169Z,99630.78
2018-01-18T01:07:04.482Z,99628.29
2018-01-18T01:09:32.819Z,99618.08
2018-01-18T01:12:01.126Z,99619.98
2018-01-18T01:14:29.462Z,99621.03
2018-01-18T01:16:57.780Z,99612.63
2018-01-18T01:19:26.114Z,99603.55
2018-01-18T01:21:54.435Z,99597.98
2018-01-18T01:24:22.771Z,99605.59
2018-01-18T01:26:51.090Z,99598.41
2018-01-18T01:29:19.422Z,99583.66
2018-01-18T01:31:47.737Z,99576.48
2018-01-18T01:34:16.066Z,99569.84
2018-01-18T01:36:44.381Z,99563.16
2018-01-18T01:39:12.721Z,99557.81
2018-01-18T01:41:41.038Z,99561.00
2018-01-18T01:44:09.368Z,99556.05
2018-01-18T01:46:37.681Z,99547.59
2018-01-18T01:49:06.017Z,99547.09
2018-01-18T01:51:34.330Z,99538.06
2018-01-18T01:54:02.667Z,99537.05
2018-01-18T01:56:30.979Z,99528.39
2018-01-18T01:58:59.305Z,99525.44
2018-01-18T02:01:27.622Z,99527.15
2018-01-18T02:03:55.949Z,99519.45
2018-01-18T02:06:24.265Z,99517.61
2018-01-18T02:08:52.634Z,99516.45
2018-01-18T02:11:20.905Z,99517.99
2018-01-18T02:13:49.250Z,99518.11
2018-01-18T02:16:17.561Z,99511.64
2018-01-18T02:18:45.864Z,99514.05
2018-01-18T02:21:14.207Z,99492.89
2018-01-18T02:23:42.513Z,99490.28
2018-01-18T02:26:10.849Z,99489.84
2018-01-18T02:28:39.157Z,99471.48
2018-01-18T02:31:07.493Z,99462.03
2018-01-18T02:33:35.813Z,99451.29
2018-01-18T02:36:04.146Z,99455.19
2018-01-18T02:38:32.457Z,99437.92
2018-01-18T02:41:00.798Z,99444.48
2018-01-18T02:43:29.119Z,99441.91
2018-01-18T02:45:57.457Z,99436.07
2018-01-18T02:48:25.778Z,99424.55
2018-01-18T02:50:54.101Z,99423.67
2018-01-18T02:53:22.413Z,99407.23
2018-01-18T02:55:50.782Z,99405.97
2018-01-18T02:58:19.077Z,99398.91
2018-01-18T03:00:47.415Z,99386.11
2018-01-18T03:03:15.729Z,99383.19
2018-01-18T03:05:44.425Z,99373.33
2018-01-18T03:08:12.738Z,99360.77
2018-01-18T03:10:41.064Z,99360.47
2018-01-18T03:13:09.403Z,99356.22
2018-01-18T03:15:37.718Z,99357.84
2018-01-18T03:18:06.021Z,99344.53
2018-01-18T03:20:34.358Z,99339.36
2018-01-18T03:23:02.674Z,99336.09
2018-01-18T03:25:31.001Z,99326.68
2018-01-18T03:27:59.313Z,99309.19
2018-01-18T03:30:27.645Z,99318.30
2018-01-18T03:32:55.961Z,99309.09
2018-01-18T03:35:24.299Z,99295.34
2018-01-18T03:37:52.600Z,99290.36
2018-01-18T03:40:20.981Z,99278.20
2018-01-18T03:42:49.240Z,99262.47
2018-01-18T03:45:17.574Z,99256.16
2018-01-18T03:47:45.890Z,99256.16
2018-01-18T03:50:14.226Z,99241.42
2018-01-18T03:52:42.534Z,99245.33
2018-01-18T03:55:10.862Z,99229.50
2018-01-18T03:57:39.173Z,99215.09
2018-01-18T04:00:07.505Z,99210.25
2018-01-18T04:02:35.822Z,99195.54
2018-01-18T04:05:04.149Z,99197.94
2018-01-18T04:07:32.465Z,99192.32
2018-01-18T04:10:00.796Z,99184.38
2018-01-18T04:12:29.117Z,99169.23
2018-01-18T04:14:57.462Z,99163.41
2018-01-18T04:17:25.780Z,99153.91
2018-01-18T04:19:54.094Z,99148.27
2018-01-18T04:22:22.430Z,99130.19
2018-01-18T04:24:50.753Z,99119.61
2018-01-18T04:27:19.085Z,99104.47
2018-01-18T04:29:47.393Z,99095.69
2018-01-18T04:32:15.724Z,99090.80
2018-01-18T04:34:44.037Z,99080.65
2018-01-18T04:37:12.371Z,99069.23
2018-01-18T04:39:40.682Z,99051.86
2018-01-18T04:42:09.009Z,99041.91
2018-01-18T04:44:37.322Z,99037.52
2018-01-18T04:47:05.652Z,99027.31
2018-01-18T04:49:33.973Z,99015.10
2018-01-18T04:52:02.301Z,99008.52
2018-01-18T04:54:30.618Z,98995.60
2018-01-18T04:56:58.949Z,98984.20
2018-01-18T04:59:27.257Z,98966.00
2018-01-18T05:01:55.584Z,98959.67
2018-01-18T05:04:23.901Z,98956.36
2018-01-18T05:06:52.238Z,98945.27
2018-01-18T05:09:20.562Z,98935.80
2018-01-18T05:11:48.902Z,98915.00
2018-01-18T05:14:17.218Z,98895.31
2018-01-18T05:16:45.545Z,98878.56
2018-01-18T05:19:13.876Z,98859.11
2018-01-18T05:21:42.209Z,98847.61
2018-01-18T05:24:10.521Z,98823.95
2018-01-18T05:26:38.858Z,98822.08
2018-01-18T05:29:07.161Z,98805.45
2018-01-18T05:31:35.530Z,98791.00
2018-01-18T05:34:04.006Z,98777.62
2018-01-18T05:36:32.344Z,98752.45
2018-01-18T05:39:00.662Z,98736.16
2018-01-18T05:41:29.001Z,98721.85
2018-01-18T05:43:57.821Z,98706.08
2018-01-18T05:46:26.233Z,98689.00
2018-01-18T05:48:54.541Z,98677.33
2018-01-18T05:51:22.886Z,98675.53
2018-01-18T05:53:51.207Z,98659.98
2018-01-18T05:56:19.534Z,98649.92
2018-01-18T05:58:47.850Z,98637.52
2018-01-18T06:01:16.189Z,98618.03
2018-01-18T06:03:44.505Z,98599.53
2018-01-18T06:06:12.850Z,98574.05
2018-01-18T06:08:41.169Z,98551.76
2018-01-18T06:11:09.525Z,98534.28
2018-01-18T06:13:38.050Z,98514.15
2018-01-18T06:16:06.578Z,98502.98
2018-01-18T06:18:34.885Z,98494.13
2018-01-18T06:21:03.225Z,98483.77
2018-01-18T06:23:31.641Z,98461.77
2018-01-18T06:25:59.951Z,98448.05
2018-01-18T06:28:28.292Z,98438.69
2018-01-18T06:30:56.607Z,98431.34
2018-01-18T06:33:24.953Z,98414.59
2018-01-18T06:35:53.278Z,98403.98
2018-01-18T06:38:21.615Z,98376.63
2018-01-18T06:40:49.934Z,98345.25
2018-01-18T06:43:18.276Z,98332.77
2018-01-18T06:45:46.589Z,98313.08
2018-01-18T06:48:14.936Z,98295.24
2018-01-18T06:50:43.242Z,98278.02
2018-01-18T06:53:11.578Z,98250.08
2018-01-18T06:55:39.894Z,98226.92
2018-01-18T06:58:08.269Z,98225.16
2018-01-18T07:00:36.577Z,98206.02
2018-01-18T07:03:04.909Z,98196.09
2018-01-18T07:05:33.222Z,98193.24
2018-01-18T07:08:01.563Z,98164.70
2018-01-18T07:10:29.882Z,98155.75
2018-01-18T07:12:58.215Z,98129.75
2018-01-18T07:15:26.531Z,98118.98
2018-01-18T07:17:54.857Z,98112.22
2018-01-18T07:20:23.175Z,98111.47
2018-01-18T07:22:51.505Z,98083.35
2018-01-18T07:25:19.827Z,98060.89
2018-01-18T07:27:48.162Z,98086.92
2018-01-18T07:30:16.482Z,98062.14
2018-01-18T07:32:44.810Z,98060.33
2018-01-18T07:35:13.122Z,98028.61
2018-01-18T07:37:41.463Z,98012.57
2018-01-18T07:40:09.818Z,98016.00
2018-01-18T07:42:38.106Z,98008.53
2018-01-18T07:45:06.418Z,97990.54
2018-01-18T07:47:34.750Z,97961.81
2018-01-18T07:50:03.064Z,97926.11
2018-01-18T07:52:31.393Z,97946.47
2018-01-18T07:54:59.702Z,97927.17
2018-01-18T07:57:28.046Z,97930.89
2018-01-18T07:59:56.350Z,97928.53
2018-01-18T08:02:24.677Z,97897.94
2018-01-18T08:04:52.989Z,97875.48
2018-01-18T08:07:21.313Z,97887.88
2018-01-18T08:09:49.617Z,97912.25
2018-01-18T08:12:17.955Z,97918.00
2018-01-18T08:14:46.266Z,97878.53
2018-01-18T08:17:14.615Z,97887.52
2018-01-18T08:19:42.926Z,97886.09
2018-01-18T08:22:11.238Z,97893.83
2018-01-18T08:24:39.569Z,97879.36
2018-01-18T08:27:07.883Z,97872.27
2018-01-18T08:29:36.205Z,97871.32
2018-01-18T08:32:04.569Z,97850.11
2018-01-18T08:34:32.838Z,97845.03
2018-01-18T08:37:01.144Z,97831.36
2018-01-18T08:39:29.635Z,97822.29
2018-01-18T08:41:57.927Z,97796.45
2018-01-18T08:44:26.263Z,97798.20
2018-01-18T08:46:54.565Z,97795.92
2018-01-18T08:49:22.897Z,97794.60
2018-01-18T08:51:51.205Z,97779.80
2018-01-18T08:54:19.529Z,97773.95
2018-01-18T08:56:47.846Z,97757.91
2018-01-18T08:59:16.173Z,97750.06
2018-01-18T09:01:44.482Z,97727.36
2018-01-18T09:04:12.813Z,97724.19
2018-01-18T09:06:41.127Z,97744.43
2018-01-18T09:09:09.465Z,97756.66
2018-01-18T09:11:37.771Z,97758.87
2018-01-18T09:14:06.102Z,97742.25
2018-01-18T09:16:34.411Z,97716.77
2018-01-18T09:19:02.746Z,97699.78
2018-01-18T09:21:31.062Z,97709.64
2018-01-18T09:23:59.395Z,97658.90
2018-01-18T09:26:27.698Z,97660.39
2018-01-18T09:28:56.027Z,97663.89
2018-01-18T09:31:24.329Z,97636.15
2018-01-18T09:33:52.662Z,97615.58
2018-01-18T09:36:21.878Z,97627.84
2018-01-18T09:38:50.210Z,97607.98
2018-01-18T09:41:18.519Z,97605.20
2018-01-18T09:43:46.847Z,97596.47
2018-01-18T09:46:15.153Z,97592.78
2018-01-18T09:48:43.484Z,97587.16
2018-01-18T09:51:11.801Z,97598.30
2018-01-18T09:53:40.139Z,97581.33
2018-01-18T09:56:08.453Z,97569.20
2018-01-18T09:58:36.790Z,97556.45
2018-01-18T10:01:05.112Z,97533.30
2018-01-18T10:03:33.453Z,97531.58
2018-01-18T10:06:01.765Z,97537.19
2018-01-18T10:08:30.098Z,97517.60
2018-01-18T10:10:58.418Z,97509.63
2018-01-18T10:13:26.765Z,97491.09
2018-01-18T10:15:55.090Z,97509.80
2018-01-18T10:18:23.435Z,97488.13
2018-01-18T10:20:51.776Z,97486.83
2018-01-18T10:23:20.087Z,97490.95
2018-01-18T10:25:48.436Z,97474.03
2018-01-18T10:28:16.749Z,97455.89
2018-01-18T10:30:45.091Z,97469.02
2018-01-18T10:33:13.403Z,97455.02
2018-01-18T10:35:41.770Z,97427.75
2018-01-18T10:38:10.054Z,97419.97
2018-01-18T10:40:38.399Z,97441.59
2018-01-18T10:43:06.738Z,97419.85
2018-01-18T10:45:35.079Z,97413.89
2018-01-18T10:48:04.348Z,97427.20
2018-01-18T10:50:32.685Z,97390.16
2018-01-18T10:53:00.998Z,97417.87
2018-01-18T10:55:29.590Z,97428.53
2018-01-18T10:57:57.894Z,97406.89
2018-01-18T11:00:26.236Z,97405.41
2018-01-18T11:02:54.545Z,97388.03
2018-01-18T11:05:22.878Z,97394.79
2018-01-18T11:07:51.190Z,97388.19
2018-01-18T11:10:19.518Z,97382.65
2018-01-18T11:12:48.181Z,97379.17
2018-01-18T11:15:16.523Z,97367.50
2018-01-18T11:17:44.862Z,97354.47
2018-01-18T11:20:13.305Z,97394.10
2018-01-18T11:22:41.601Z,97374.21
2018-01-18T11:25:09.938Z,97351.77
2018-01-18T11:27:38.254Z,97357.83
2018-01-18T11:30:06.590Z,97358.53
2018-01-18T11:32:34.897Z,97361.78
2018-01-18T11:35:04.181Z,97388.20
2018-01-18T11:37:32.493Z,97400.95
2018-01-18T11:40:00.869Z,97394.33
2018-01-18T11:42:29.142Z,97385.87
2018-01-18T11:44:57.465Z,97397.78
2018-01-18T11:47:25.777Z,97404.63
2018-01-18T11:49:54.109Z,97410.00
2018-01-18T11:52:22.444Z,97395.73
2018-01-18T11:54:50.757Z,97395.76
2018-01-18T11:57:19.106Z,97387.40
2018-01-18T11:59:47.438Z,97392.70
2018-01-18T12:02:15.770Z,97406.60
2018-01-18T12:04:44.109Z,97412.33
2018-01-18T12:07:12.410Z,97422.31
2018-01-18T12:09:40.742Z,97420.91
2018-01-18T12:12:09.044Z,97420.02
2018-01-18T12:14:37.373Z,97432.45
2018-01-18T12:17:05.689Z,97415.31
2018-01-18T12:19:34.013Z,97437.77
2018-01-18T12:22:02.391Z,97444.94
2018-01-18T12:24:30.737Z,97450.53
2018-01-18T12:26:59.069Z,97467.08
2018-01-18T12:29:27.382Z,97455.09
2018-01-18T12:31:55.713Z,97513.66
2018-01-18T12:34:24.040Z,97474.44
2018-01-18T12:36:52.363Z,97510.36
2018-01-18T12:39:20.666Z,97538.54
2018-01-18T12:41:49.030Z,97559.95
2018-01-18T12:44:17.334Z,97597.60
2018-01-18T12:46:45.666Z,97594.16
2018-01-18T12:49:13.973Z,97604.94
2018-01-18T12:51:42.318Z,97622.69
2018-01-18T12:54:10.625Z,97654.20
2018-01-18T12:56:38.953Z,97671.17
2018-01-18T12:59:07.267Z,97698.34
2018-01-18T13:01:35.597Z,97711.78
2018-01-18T13:04:03.906Z,97768.22
2018-01-18T13:06:32.237Z,97756.82
2018-01-18T13:09:00.551Z,97761.23
2018-01-18T13:11:28.881Z,97835.59
2018-01-18T13:13:57.224Z,97802.62
2018-01-18T13:16:25.533Z,97846.98
2018-01-18T13:18:53.846Z,97889.55
2018-01-18T13:21:22.185Z,97903.47
2018-01-18T13:23:50.502Z,97930.47
2018-01-18T13:26:18.830Z,97976.13
2018-01-18T13:28:47.138Z,97994.98
2018-01-18T13:31:15.476Z,98027.20
2018-01-18T13:33:43.789Z,98028.91
2018-01-18T13:36:12.122Z,98070.55
2018-01-18T13:38:40.435Z,98094.78
2018-01-18T13:41:08.773Z,98120.05
2018-01-18T13:43:37.086Z,98157.16
2018-01-18T13:46:05.413Z,98158.42
2018-01-18T13:48:33.723Z,98170.52
2018-01-18T13:51:02.062Z,98214.58
2018-01-18T13:53:30.370Z,98217.52
2018-01-18T13:55:58.705Z,98290.48
2018-01-18T13:58:27.013Z,98289.13
2018-01-18T14:00:55.361Z,98304.34
2018-01-18T14:03:23.673Z,98316.66
2018-01-18T14:05:52.010Z,98336.45
2018-01-18T14:08:20.334Z,98381.79
2018-01-18T14:10:48.666Z,98394.64
2018-01-18T14:13:16.989Z,98388.61
2018-01-18T14:15:45.338Z,98432.92
2018-01-18T14:18:13.654Z,98435.22
2018-01-18T14:20:41.981Z,98452.83
2018-01-18T14:23:10.315Z,98466.39
2018-01-18T14:25:39.569Z,98473.45
2018-01-18T14:28:07.893Z,98477.14
2018-01-18T14:30:36.209Z,98513.28
2018-01-18T14:33:04.641Z,98532.23
2018-01-18T14:35:33.949Z,98539.68
2018-01-18T14:38:02.287Z,98532.25
2018-01-18T14:40:30.626Z,98574.87
2018-01-18T14:42:58.962Z,98590.50
2018-01-18T14:45:27.268Z,98601.01
2018-01-18T14:47:55.629Z,98621.89
2018-01-18T14:50:23.927Z,98647.15
2018-01-18T14:52:52.262Z,98658.94
2018-01-18T14:55:20.573Z,98661.83
2018-01-18T14:57:48.918Z,98684.50
2018-01-18T15:00:17.233Z,98695.73
2018-01-18T15:02:45.570Z,98715.61
2018-01-18T15:05:13.987Z,98726.09
2018-01-18T15:07:42.316Z,98730.59
2018-01-18T15:10:10.629Z,98753.16
2018-01-18T15:12:38.970Z,98773.81
2018-01-18T15:15:07.266Z,98782.91
2018-01-18T15:17:35.597Z,98794.97
2018-01-18T15:20:04.881Z,98804.59
2018-01-18T15:22:33.208Z,98811.05
2018-01-18T15:25:01.528Z,98814.22
2018-01-18T15:27:29.857Z,98843.44
2018-01-18T15:29:58.166Z,98844.63
2018-01-18T15:32:26.544Z,98851.59
2018-01-18T15:34:54.855Z,98872.34
2018-01-18T15:37:23.186Z,98871.31
2018-01-18T15:39:51.854Z,98874.08
2018-01-18T15:42:20.195Z,98892.12
2018-01-18T15:44:48.502Z,98901.62
2018-01-18T15:47:16.838Z,98910.81
2018-01-18T15:49:45.158Z,98917.51
2018-01-18T15:52:13.486Z,98931.09
2018-01-18T15:54:41.830Z,98943.22
2018-01-18T15:57:10.366Z,98945.04
2018-01-18T15:59:38.694Z,98957.95
2018-01-18T16:02:07.028Z,98966.17
2018-01-18T16:04:35.353Z,98974.16
2018-01-18T16:07:03.653Z,98971.50
2018-01-18T16:09:31.986Z,98985.13
2018-01-18T16:12:00.323Z,98982.09
2018-01-18T16:14:28.650Z,98990.33
2018-01-18T16:16:57.909Z,98996.37
2018-01-18T16:19:26.246Z,99004.11
2018-01-18T16:21:55.402Z,99001.48
2018-01-18T16:24:23.734Z,99005.74
2018-01-18T16:26:52.049Z,99005.88
2018-01-18T16:29:20.382Z,99016.79
2018-01-18T16:31:48.685Z,99019.88
2018-01-18T16:34:17.050Z,99028.80
2018-01-18T16:36:45.417Z,99040.14
2018-01-18T16:39:13.777Z,99037.09
2018-01-18T16:41:42.129Z,99049.95
2018-01-18T16:44:10.442Z,99046.80
2018-01-18T16:46:38.791Z,99058.27
2018-01-18T16:49:07.113Z,99053.76
2018-01-18T16:51:35.421Z,99058.95
2018-01-18T16:54:03.749Z,99065.23
2018-01-18T16:56:32.279Z,99071.45
2018-01-18T16:59:00.585Z,99076.48
2018-01-18T17:01:28.920Z,99074.46
2018-01-18T17:03:57.232Z,99088.56
2018-01-18T17:06:25.561Z,99086.10
2018-01-18T17:08:53.869Z,99092.33
2018-01-18T17:11:22.201Z,99091.94
2018-01-18T17:13:50.501Z,99107.25
2018-01-18T17:16:19.080Z,99108.16
2018-01-18T17:18:47.390Z,99114.73
2018-01-18T17:21:15.725Z,99117.28
2018-01-18T17:23:44.033Z,99116.42
2018-01-18T17:26:12.366Z,99122.83
2018-01-18T17:28:40.678Z,99125.70
2018-01-18T17:31:09.005Z,99126.02
2018-01-18T17:33:37.317Z,99134.89
2018-01-18T17:36:05.650Z,99137.67
2018-01-18T17:38:33.953Z,99135.53
2018-01-18T17:41:02.289Z,99152.12
2018-01-18T17:43:30.598Z,99156.94
2018-01-18T17:45:58.924Z,99152.01
2018-01-18T17:48:27.242Z,99157.93
2018-01-18T17:50:55.577Z,99157.98
2018-01-18T17:53:23.885Z,99162.08
2018-01-18T17:55:52.213Z,99170.20
2018-01-18T17:58:20.527Z,99174.12
2018-01-18T18:00:48.853Z,99177.91
2018-01-18T18:03:17.181Z,99176.86
2018-01-18T18:05:45.497Z,99175.66
2018-01-18T18:08:13.830Z,99187.77
2018-01-18T18:10:42.206Z,99192.97
2018-01-18T18:13:10.542Z,99204.80
2018-01-18T18:15:38.980Z,99198.95
2018-01-18T18:18:07.330Z,99197.36
2018-01-18T18:20:35.658Z,99211.12
2018-01-18T18:23:04.128Z,99205.24
2018-01-18T18:25:32.516Z,99209.48
2018-01-18T18:28:01.638Z,99212.88
2018-01-18T18:30:29.977Z,99214.95
2018-01-18T18:32:58.380Z,99213.81
2018-01-18T18:35:26.721Z,99224.64
2018-01-18T18:37:55.064Z,99227.00
2018-01-18T18:40:23.374Z,99231.36
2018-01-18T18:42:51.741Z,99234.84
2018-01-18T18:45:20.059Z,99242.47
2018-01-18T18:47:48.364Z,99239.95
2018-01-18T18:50:16.701Z,99251.78
2018-01-18T18:52:45.013Z,99253.48
2018-01-18T18:55:13.353Z,99263.19
2018-01-18T18:57:41.665Z,99263.52
2018-01-18T19:00:10.002Z,99268.03
2018-01-18T19:02:38.318Z,99275.23
2018-01-18T19:05:07.429Z,99278.69
2018-01-18T19:07:35.745Z,99269.26
2018-01-18T19:10:04.086Z,99278.56
2018-01-18T19:12:32.389Z,99278.16
2018-01-18T19:15:00.914Z,99270.94
2018-01-18T19:17:29.275Z,99276.13
2018-01-18T19:19:57.630Z,99278.11
2018-01-18T19:22:25.917Z,99277.87
2018-01-18T19:24:54.254Z,99276.63
2018-01-18T19:27:22.569Z,99279.28
2018-01-18T19:29:50.910Z,99282.11
2018-01-18T19:32:19.419Z,99286.70
2018-01-18T19:34:47.878Z,99286.88
2018-01-18T19:37:16.185Z,99294.33
2018-01-18T19:39:44.525Z,99293.88
2018-01-18T19:42:12.846Z,99298.44
2018-01-18T19:44:41.157Z,99298.90
2018-01-18T19:47:09.486Z,99303.57
2018-01-18T19:49:37.789Z,99301.56
2018-01-18T19:52:06.117Z,99305.45
2018-01-18T19:54:34.426Z,99309.84
2018-01-18T19:57:02.762Z,99312.38
2018-01-18T19:59:31.073Z,99317.80
2018-01-18T20:01:59.401Z,99311.84
2018-01-18T20:04:30.793Z,99312.96
2018-01-18T20:06:59.117Z,99307.28
2018-01-18T20:09:27.436Z,99315.14
2018-01-18T20:11:55.765Z,99312.38
2018-01-18T20:14:24.570Z,99313.17
2018-01-18T20:16:52.909Z,99316.41
2018-01-18T20:19:21.273Z,99318.30
2018-01-18T20:21:49.610Z,99328.06
2018-01-18T20:24:17.924Z,99336.66
2018-01-18T20:26:46.262Z,99334.16
2018-01-18T20:29:14.582Z,99328.55
2018-01-18T20:31:42.922Z,99337.56
2018-01-18T20:34:12.105Z,99335.42
2018-01-18T20:36:40.410Z,99345.19
2018-01-18T20:39:08.737Z,99352.47
2018-01-18T20:41:37.063Z,99351.66
2018-01-18T20:44:05.453Z,99359.73
2018-01-18T20:46:33.757Z,99355.30
2018-01-18T20:49:02.093Z,99358.09
2018-01-18T20:51:30.405Z,99364.89
2018-01-18T20:53:59.753Z,99360.03
2018-01-18T20:56:28.061Z,99371.58
2018-01-18T20:58:56.404Z,99363.36
2018-01-18T21:01:24.716Z,99361.66
2018-01-18T21:03:53.054Z,99367.26
2018-01-18T21:06:21.361Z,99371.59
2018-01-18T21:08:49.691Z,99369.49
2018-01-18T21:11:18.012Z,99375.22
2018-01-18T21:13:46.469Z,99372.02
2018-01-18T21:16:14.785Z,99377.58
2018-01-18T21:18:43.123Z,99384.92
2018-01-18T21:21:11.429Z,99387.53
2018-01-18T21:23:39.757Z,99387.67
2018-01-18T21:26:08.065Z,99386.23
2018-01-18T21:28:36.402Z,99384.27
2018-01-18T21:31:04.719Z,99390.69
2018-01-18T21:33:33.049Z,99392.41
2018-01-18T21:36:01.385Z,99397.25
2018-01-18T21:38:29.714Z,99405.73
2018-01-18T21:40:58.030Z,99395.61
2018-01-18T21:43:26.361Z,99403.34
2018-01-18T21:45:54.685Z,99409.77
2018-01-18T21:48:23.005Z,99412.14
2018-01-18T21:50:51.318Z,99416.19
2018-01-18T21:53:19.645Z,99424.52
2018-01-18T21:55:47.957Z,99426.41
2018-01-18T21:58:16.285Z,99426.48
2018-01-18T22:00:44.622Z,99427.05
2018-01-18T22:03:12.953Z,99428.08
2018-01-18T22:05:41.269Z,99427.08
2018-01-18T22:08:09.614Z,99426.23
2018-01-18T22:10:37.926Z,99431.97
2018-01-18T22:13:06.237Z,99430.29
2018-01-18T22:15:34.575Z,99433.97
2018-01-18T22:18:02.888Z,99431.99
2018-01-18T22:20:31.217Z,99429.58
2018-01-18T22:22:59.546Z,99426.72
2018-01-18T22:25:27.873Z,99429.95
2018-01-18T22:27:56.188Z,99421.96
2018-01-18T22:30:24.522Z,99418.79
2018-01-18T22:32:52.834Z,99422.08
2018-01-18T22:35:21.187Z,99419.52
2018-01-18T22:37:49.497Z,99426.25
2018-01-18T22:40:17.936Z,99427.14
2018-01-18T22:42:46.225Z,99419.52
2018-01-18T22:45:19.878Z,99425.05
2018-01-18T22:47:48.202Z,99422.44
2018-01-18T22:50:16.537Z,99432.08
2018-01-18T22:52:44.850Z,99424.83
2018-01-18T22:55:13.174Z,99427.59
2018-01-18T22:57:41.486Z,99426.59
2018-01-18T23:00:09.812Z,99428.64
2018-01-18T23:02:38.113Z,99434.03
2018-01-18T23:05:06.445Z,99433.48
2018-01-18T23:07:34.752Z,99430.39
2018-01-18T23:10:03.081Z,99434.63
2018-01-18T23:12:31.394Z,99440.87
2018-01-18T23:14:59.725Z,99445.60
2018-01-18T23:17:28.043Z,99441.47
2018-01-18T23:19:56.371Z,99443.95
2018-01-18T23:22:24.690Z,99445.89
2018-01-18T23:24:53.024Z,99444.27
2018-01-18T23:27:21.325Z,99446.44
2018-01-18T23:29:49.653Z,99446.33
2018-01-18T23:32:17.961Z,99450.81
2018-01-18T23:34:46.301Z,99451.25
2018-01-18T23:37:14.605Z,99454.95
2018-01-18T23:39:42.941Z,99456.59
2018-01-18T23:42:11.248Z,99460.63
2018-01-18T23:44:39.581Z,99460.42
2018-01-18T23:47:07.893Z,99454.09
2018-01-18T23:49:36.225Z,99457.03
2018-01-18T23:52:04.538Z,99455.10
2018-01-18T23:54:32.865Z,99458.81
2018-01-18T23:57:01.178Z,99454.98
2018-01-18T23:59:29.505Z,99460.66
